Time,TemperatureF,DewpointF,PressureIn,WindDirection,WindDirectionDegrees,WindSpeedMPH,WindSpeedGustMPH,Humidity,HourlyPrecipIn,Conditions,Clouds,dailyrainin,SoftwareType,DateUTC
2013-03-14 00:02:00,28.0,21.0,-100.00,West,275,6.0,6.0,75,-99.99,,,-99.99,,2013-03-14 05:02:00,
2013-03-14 00:12:00,28.0,21.0,-100.00,West,270,6.0,6.0,75,-99.99,,,-99.99,,2013-03-14 05:12:00,
2013-03-14 00:22:00,28.0,21.0,-100.00,West,270,6.0,6.0,75,-99.99,,,-99.99,,2013-03-14 05:22:00,
2013-03-14 00:42:00,28.0,22.0,-100.00,West,270,6.0,8.0,77,-99.99,,,-99.99,,2013-03-14 05:42:00,
2013-03-14 00:53:00,28.0,22.0,-100.00,West,270,6.0,8.0,77,-99.99,,,-99.99,,2013-03-14 05:53:00,
2013-03-14 01:02:00,28.0,22.0,-100.00,WSW,245,3.0,3.0,79,-99.99,,,-99.99,,2013-03-14 06:02:00,
2013-03-14 01:12:00,29.0,22.0,-100.00,West,265,4.0,6.0,76,-99.99,,,-99.99,,2013-03-14 06:12:00,
2013-03-14 01:22:00,28.0,22.0,-100.00,WSW,250,3.0,4.0,79,-99.99,,,-99.99,,2013-03-14 06:22:00,
2013-03-14 01:32:00,28.0,22.0,-100.00,WSW,250,3.0,4.0,79,-99.99,,,-99.99,,2013-03-14 06:32:00,
2013-03-14 01:42:00,28.0,22.0,-100.00,WSW,250,3.0,4.0,79,-99.99,,,-99.99,,2013-03-14 06:42:00,
2013-03-14 01:52:00,28.0,22.0,-100.00,WSW,245,3.0,3.0,79,-99.99,,,-99.99,,2013-03-14 06:52:00,
2013-03-14 02:12:00,28.0,23.0,-100.00,SW,230,6.0,6.0,82,-99.99,,,-99.99,,2013-03-14 07:12:00,
2013-03-14 02:22:00,28.0,23.0,-100.00,SW,230,6.0,6.0,82,-99.99,,,-99.99,,2013-03-14 07:22:00,
2013-03-14 02:32:00,28.0,23.0,-100.00,SW,220,6.0,6.0,82,-99.99,,,-99.99,,2013-03-14 07:32:00,
2013-03-14 02:52:00,28.0,22.0,-100.00,SW,230,4.0,6.0,77,-99.99,,,-99.99,,2013-03-14 07:52:00,
2013-03-14 03:02:00,28.0,22.0,-100.00,SW,230,4.0,6.0,77,-99.99,,,-99.99,,2013-03-14 08:02:00,
2013-03-14 03:12:00,28.0,22.0,-100.00,SW,220,4.0,6.0,77,-99.99,,,-99.99,,2013-03-14 08:12:00,
2013-03-14 03:22:00,28.0,22.0,-100.00,SW,235,6.0,8.0,78,-99.99,,,-99.99,,2013-03-14 08:22:00,
2013-03-14 03:32:00,28.0,22.0,-100.00,SW,235,6.0,8.0,78,-99.99,,,-99.99,,2013-03-14 08:32:00,
2013-03-14 03:42:00,28.0,23.0,-100.00,SW,230,6.0,8.0,80,-99.99,,,-99.99,,2013-03-14 08:42:00,
2013-03-14 03:52:00,28.0,23.0,-100.00,SSW,205,6.0,6.0,82,-99.99,,,-99.99,,2013-03-14 08:52:00,
2013-03-14 04:01:00,28.0,23.0,-100.00,SSW,205,6.0,6.0,82,-99.99,,,-99.99,,2013-03-14 09:01:00,
2013-03-14 04:12:00,28.0,22.0,-100.00,South,190,3.0,4.0,79,-99.99,,,-99.99,,2013-03-14 09:12:00,
2013-03-14 04:22:00,27.0,21.0,-100.00,South,175,3.0,6.0,78,-99.99,,,-99.99,,2013-03-14 09:22:00,
2013-03-14 04:32:00,27.0,21.0,-100.00,South,175,3.0,6.0,78,-99.99,,,-99.99,,2013-03-14 09:32:00,
2013-03-14 04:42:00,28.0,22.0,-100.00,SSW,205,6.0,6.0,79,-99.99,,,-99.99,,2013-03-14 09:42:00,
2013-03-14 04:52:00,28.0,23.0,-100.00,SW,230,6.0,6.0,81,-99.99,,,-99.99,,2013-03-14 09:52:00,
2013-03-14 05:02:00,28.0,23.0,-100.00,SW,230,6.0,6.0,81,-99.99,,,-99.99,,2013-03-14 10:02:00,
2013-03-14 05:12:00,28.0,23.0,-100.00,SW,230,6.0,6.0,81,-99.99,,,-99.99,,2013-03-14 10:12:00,
2013-03-14 05:22:00,28.0,23.0,-100.00,SSW,210,4.0,6.0,82,-99.99,,,-99.99,,2013-03-14 10:22:00,
2013-03-14 05:32:00,28.0,23.0,-100.00,SSW,210,4.0,6.0,82,-99.99,,,-99.99,,2013-03-14 10:32:00,
2013-03-14 05:42:00,28.0,21.0,-100.00,South,190,4.0,6.0,76,-99.99,,,-99.99,,2013-03-14 10:42:00,
2013-03-14 05:52:00,28.0,22.0,-100.00,SSE,160,6.0,6.0,77,-99.99,,,-99.99,,2013-03-14 10:52:00,
2013-03-14 06:02:00,28.0,22.0,-100.00,SSE,160,6.0,6.0,77,-99.99,,,-99.99,,2013-03-14 11:02:00,
2013-03-14 06:12:00,28.0,23.0,-100.00,SSE,150,6.0,8.0,80,-99.99,,,-99.99,,2013-03-14 11:12:00,
2013-03-14 06:22:00,28.0,23.0,-100.00,South,190,6.0,6.0,81,-99.99,,,-99.99,,2013-03-14 11:22:00,
2013-03-14 06:33:00,28.0,23.0,-100.00,South,190,6.0,6.0,81,-99.99,,,-99.99,,2013-03-14 11:33:00,
2013-03-14 06:42:00,29.0,23.0,-100.00,SE,140,3.0,4.0,78,-99.99,,,-99.99,,2013-03-14 11:42:00,
2013-03-14 06:53:00,29.0,23.0,-100.00,SSE,165,4.0,6.0,77,-99.99,,,-99.99,,2013-03-14 11:53:00,
2013-03-14 07:02:00,29.0,23.0,-100.00,SSE,165,4.0,6.0,77,-99.99,,,-99.99,,2013-03-14 12:02:00,
2013-03-14 07:12:00,30.0,24.0,-100.00,SSW,200,6.0,6.0,77,-99.99,,,-99.99,,2013-03-14 12:12:00,
2013-03-14 07:22:00,30.0,22.0,-100.00,South,185,6.0,8.0,73,-99.99,,,-99.99,,2013-03-14 12:22:00,
2013-03-14 07:33:00,30.0,22.0,-100.00,South,185,6.0,8.0,73,-99.99,,,-99.99,,2013-03-14 12:33:00,
2013-03-14 07:42:00,30.0,22.0,-100.00,South,185,6.0,9.0,73,-99.99,,,-99.99,,2013-03-14 12:42:00,
2013-03-14 07:52:00,30.0,22.0,-100.00,South,180,10.0,11.0,73,-99.99,,,-99.99,,2013-03-14 12:52:00,
2013-03-14 08:02:00,30.0,22.0,-100.00,South,180,10.0,11.0,73,-99.99,,,-99.99,,2013-03-14 13:02:00,
2013-03-14 08:12:00,30.0,22.0,-100.00,South,170,6.0,9.0,73,-99.99,,,-99.99,,2013-03-14 13:12:00,
2013-03-14 08:22:00,30.0,23.0,-100.00,South,190,6.0,8.0,75,-99.99,,,-99.99,,2013-03-14 13:22:00,
2013-03-14 08:32:00,30.0,23.0,-100.00,South,190,6.0,8.0,75,-99.99,,,-99.99,,2013-03-14 13:32:00,
2013-03-14 08:42:00,31.0,23.0,-100.00,South,170,6.0,9.0,73,-99.99,,,-99.99,,2013-03-14 13:42:00,
2013-03-14 08:52:00,31.0,23.0,-100.00,SSW,195,8.0,11.0,71,-99.99,,,-99.99,,2013-03-14 13:52:00,
2013-03-14 09:02:00,31.0,23.0,-100.00,SSW,195,8.0,11.0,71,-99.99,,,-99.99,,2013-03-14 14:02:00,
2013-03-14 09:12:00,32.0,24.0,-100.00,SSW,195,8.0,10.0,71,-99.99,,,-99.99,,2013-03-14 14:12:00,
2013-03-14 09:22:00,32.0,23.0,-100.00,South,185,11.0,14.0,68,-99.99,,,-99.99,,2013-03-14 14:22:00,
2013-03-14 09:32:00,32.0,23.0,-100.00,South,185,11.0,14.0,68,-99.99,,,-99.99,,2013-03-14 14:32:00,
2013-03-14 09:42:00,32.0,22.0,-100.00,South,185,11.0,14.0,67,-99.99,,,-99.99,,2013-03-14 14:42:00,
2013-03-14 09:53:00,33.0,23.0,-100.00,SSW,200,10.0,14.0,66,-99.99,,,-99.99,,2013-03-14 14:53:00,
2013-03-14 10:02:00,33.0,23.0,-100.00,SSW,200,10.0,14.0,66,-99.99,,,-99.99,,2013-03-14 15:02:00,
2013-03-14 10:12:00,34.0,23.0,-100.00,SSE,165,12.0,16.0,64,-99.99,,,-99.99,,2013-03-14 15:12:00,
2013-03-14 10:22:00,34.0,23.0,-100.00,SSE,160,12.0,16.0,63,-99.99,,,-99.99,,2013-03-14 15:22:00,
2013-03-14 10:33:00,34.0,23.0,-100.00,SSE,160,12.0,16.0,63,-99.99,,,-99.99,,2013-03-14 15:33:00,
2013-03-14 10:43:00,34.0,23.0,-100.00,SSE,160,12.0,16.0,63,-99.99,,,-99.99,,2013-03-14 15:43:00,
2013-03-14 12:12:00,37.0,21.0,-100.00,SSE,165,18.0,21.0,52,-99.99,,,-99.99,,2013-03-14 17:12:00,
2013-03-14 12:23:00,37.0,21.0,-100.00,SSE,160,21.0,24.0,52,-99.99,,,-99.99,,2013-03-14 17:23:00,
2013-03-14 12:32:00,37.0,21.0,-100.00,SSE,160,21.0,24.0,52,-99.99,,,-99.99,,2013-03-14 17:32:00,
2013-03-14 12:42:00,38.0,22.0,-100.00,South,185,16.0,21.0,52,-99.99,,,-99.99,,2013-03-14 17:42:00,
2013-03-14 12:53:00,38.0,21.0,-100.00,SSE,160,14.0,21.0,50,-99.99,,,-99.99,,2013-03-14 17:53:00,
2013-03-14 13:03:00,38.0,21.0,-100.00,SSE,160,14.0,21.0,50,-99.99,,,-99.99,,2013-03-14 18:03:00,
2013-03-14 13:12:00,38.0,21.0,-100.00,South,180,17.0,21.0,50,-99.99,,,-99.99,,2013-03-14 18:12:00,
2013-03-14 13:23:00,39.0,22.0,-100.00,South,170,19.0,25.0,50,-99.99,,,-99.99,,2013-03-14 18:23:00,
2013-03-14 13:33:00,39.0,22.0,-100.00,South,170,19.0,25.0,50,-99.99,,,-99.99,,2013-03-14 18:33:00,
2013-03-14 13:43:00,40.0,22.0,-100.00,SSE,150,21.0,24.0,48,-99.99,,,-99.99,,2013-03-14 18:43:00,
2013-03-14 13:52:00,40.0,23.0,-100.00,South,170,21.0,23.0,50,-99.99,,,-99.99,,2013-03-14 18:52:00,
2013-03-14 14:03:00,40.0,23.0,-100.00,South,170,21.0,23.0,50,-99.99,,,-99.99,,2013-03-14 19:03:00,
2013-03-14 14:12:00,41.0,23.0,-100.00,SSE,165,18.0,21.0,48,-99.99,,,-99.99,,2013-03-14 19:12:00,
2013-03-14 14:23:00,40.0,22.0,-100.00,South,170,18.0,23.0,48,-99.99,,,-99.99,,2013-03-14 19:23:00,
2013-03-14 14:32:00,40.0,22.0,-100.00,South,170,18.0,23.0,48,-99.99,,,-99.99,,2013-03-14 19:32:00,
2013-03-14 14:42:00,40.0,22.0,-100.00,South,170,18.0,23.0,48,-99.99,,,-99.99,,2013-03-14 19:42:00,
2013-03-14 15:42:00,44.0,26.0,-100.00,SE,145,21.0,24.0,49,-99.99,,,-99.99,,2013-03-14 20:42:00,
2013-03-14 15:52:00,45.0,27.0,-100.00,South,170,19.0,23.0,49,-99.99,,,-99.99,,2013-03-14 20:52:00,
2013-03-14 16:02:00,45.0,27.0,-100.00,South,170,19.0,23.0,49,-99.99,,,-99.99,,2013-03-14 21:02:00,
2013-03-14 16:12:00,45.0,27.0,-100.00,SSE,165,21.0,25.0,50,-99.99,,,-99.99,,2013-03-14 21:12:00,
2013-03-14 16:22:00,45.0,28.0,-100.00,SE,145,21.0,26.0,51,-99.99,,,-99.99,,2013-03-14 21:22:00,
2013-03-14 16:32:00,45.0,28.0,-100.00,SE,145,21.0,26.0,51,-99.99,,,-99.99,,2013-03-14 21:32:00,
2013-03-14 16:43:00,46.0,28.0,-100.00,South,170,16.0,19.0,50,-99.99,,,-99.99,,2013-03-14 21:43:00,
2013-03-14 16:53:00,47.0,29.0,-100.00,South,190,17.0,24.0,49,-99.99,,,-99.99,,2013-03-14 21:53:00,
2013-03-14 17:03:00,47.0,29.0,-100.00,South,190,17.0,24.0,49,-99.99,,,-99.99,,2013-03-14 22:03:00,
2013-03-14 17:13:00,46.0,28.0,-100.00,SSW,195,19.0,24.0,49,-99.99,,,-99.99,,2013-03-14 22:13:00,
2013-03-14 17:23:00,47.0,29.0,-100.00,South,185,16.0,21.0,49,-99.99,,,-99.99,,2013-03-14 22:23:00,
2013-03-14 17:33:00,47.0,29.0,-100.00,South,185,16.0,21.0,49,-99.99,,,-99.99,,2013-03-14 22:33:00,
2013-03-14 17:42:00,47.0,29.0,-100.00,South,175,17.0,23.0,49,-99.99,,,-99.99,,2013-03-14 22:42:00,
2013-03-14 17:52:00,47.0,29.0,-100.00,South,180,16.0,21.0,49,-99.99,,,-99.99,,2013-03-14 22:52:00,
2013-03-14 18:02:00,47.0,29.0,-100.00,South,180,16.0,21.0,49,-99.99,,,-99.99,,2013-03-14 23:02:00,
2013-03-14 18:12:00,47.0,29.0,-100.00,South,170,16.0,19.0,49,-99.99,,,-99.99,,2013-03-14 23:12:00,
2013-03-14 18:22:00,47.0,28.0,-100.00,SSE,165,16.0,19.0,47,-99.99,,,-99.99,,2013-03-14 23:22:00,
2013-03-14 18:33:00,47.0,28.0,-100.00,SSE,165,16.0,19.0,47,-99.99,,,-99.99,,2013-03-14 23:33:00,
2013-03-14 18:42:00,47.0,28.0,-100.00,South,175,12.0,14.0,47,-99.99,,,-99.99,,2013-03-14 23:42:00,
2013-03-14 18:53:00,45.0,27.0,-100.00,South,190,12.0,16.0,48,-99.99,,,-99.99,,2013-03-14 23:53:00,
2013-03-14 19:02:00,45.0,27.0,-100.00,South,190,12.0,16.0,48,-99.99,,,-99.99,,2013-03-15 00:02:00,
2013-03-14 19:12:00,44.0,27.0,-100.00,SSE,160,10.0,14.0,51,-99.99,,,-99.99,,2013-03-15 00:12:00,
2013-03-14 19:23:00,43.0,27.0,-100.00,SSE,165,11.0,14.0,52,-99.99,,,-99.99,,2013-03-15 00:23:00,
2013-03-14 19:32:00,43.0,27.0,-100.00,SSE,165,11.0,14.0,52,-99.99,,,-99.99,,2013-03-15 00:32:00,
2013-03-14 19:42:00,42.0,28.0,-100.00,South,190,12.0,16.0,57,-99.99,,,-99.99,,2013-03-15 00:42:00,
2013-03-14 19:52:00,42.0,30.0,-100.00,South,170,11.0,14.0,61,-99.99,,,-99.99,,2013-03-15 00:52:00,
2013-03-14 20:02:00,42.0,30.0,-100.00,South,170,11.0,14.0,61,-99.99,,,-99.99,,2013-03-15 01:02:00,
2013-03-14 20:12:00,41.0,29.0,-100.00,South,175,12.0,14.0,61,-99.99,,,-99.99,,2013-03-15 01:12:00,
2013-03-14 20:22:00,40.0,28.0,-100.00,SSE,160,11.0,14.0,63,-99.99,,,-99.99,,2013-03-15 01:22:00,
2013-03-14 20:32:00,40.0,28.0,-100.00,SSE,160,11.0,14.0,63,-99.99,,,-99.99,,2013-03-15 01:32:00,
2013-03-14 20:42:00,40.0,28.0,-100.00,South,185,17.0,21.0,61,-99.99,,,-99.99,,2013-03-15 01:42:00,
2013-03-14 20:52:00,39.0,28.0,-100.00,SSE,155,11.0,14.0,65,-99.99,,,-99.99,,2013-03-15 01:52:00,
2013-03-14 21:02:00,39.0,28.0,-100.00,SSE,155,11.0,14.0,65,-99.99,,,-99.99,,2013-03-15 02:02:00,
2013-03-14 21:12:00,38.0,28.0,-100.00,SSE,160,12.0,16.0,68,-99.99,,,-99.99,,2013-03-15 02:12:00,
2013-03-14 21:22:00,38.0,28.0,-100.00,SE,135,12.0,14.0,68,-99.99,,,-99.99,,2013-03-15 02:22:00,
2013-03-14 21:32:00,38.0,28.0,-100.00,SE,135,12.0,14.0,68,-99.99,,,-99.99,,2013-03-15 02:32:00,
2013-03-14 21:42:00,38.0,29.0,-100.00,SSE,165,11.0,14.0,69,-99.99,,,-99.99,,2013-03-15 02:42:00,
2013-03-14 21:52:00,38.0,29.0,-100.00,SSE,155,14.0,14.0,70,-99.99,,,-99.99,,2013-03-15 02:52:00,
2013-03-14 22:02:00,38.0,29.0,-100.00,SSE,155,14.0,14.0,70,-99.99,,,-99.99,,2013-03-15 03:02:00,
2013-03-14 22:12:00,37.0,28.0,-100.00,SSE,150,9.0,11.0,71,-99.99,,,-99.99,,2013-03-15 03:12:00,
2013-03-14 22:22:00,36.0,28.0,-100.00,SSE,155,10.0,12.0,73,-99.99,,,-99.99,,2013-03-15 03:22:00,
2013-03-14 22:33:00,36.0,28.0,-100.00,SSE,155,10.0,12.0,73,-99.99,,,-99.99,,2013-03-15 03:33:00,
2013-03-14 22:43:00,36.0,29.0,-100.00,SSE,155,11.0,12.0,74,-99.99,,,-99.99,,2013-03-15 03:43:00,
2013-03-14 22:53:00,36.0,29.0,-100.00,SE,145,10.0,11.0,75,-99.99,,,-99.99,,2013-03-15 03:53:00,
2013-03-14 23:03:00,36.0,29.0,-100.00,SE,145,10.0,11.0,75,-99.99,,,-99.99,,2013-03-15 04:03:00,
2013-03-14 23:12:00,35.0,28.0,-100.00,SE,145,8.0,10.0,76,-99.99,,,-99.99,,2013-03-15 04:12:00,
2013-03-14 23:23:00,35.0,29.0,-100.00,SE,145,9.0,11.0,77,-99.99,,,-99.99,,2013-03-15 04:23:00,
2013-03-14 23:32:00,35.0,29.0,-100.00,SE,145,9.0,11.0,77,-99.99,,,-99.99,,2013-03-15 04:32:00,
2013-03-14 23:43:00,35.0,29.0,-100.00,SE,145,9.0,11.0,77,-99.99,,,-99.99,,2013-03-15 04:43:00,